Time;durP1;ratioP1;P1;durP2;ratioP2;P2;SDS_P1;SDS_P2;PMS_P1;PMS_P2;Temp;Humidity;BMP_temperature;BMP_pressure;BME280_temperature;BME280_humidity;BME280_pressure;Samples;Min_cycle;Max_cycle;Signal;HPM_P1;HPM_P2
2024/03/24 00:00:03;;;;;;;4.40;3.40;;;;;;;8.74;100.00;101074.94;10562416;28;20100;-77
2024/03/24 00:05:33;;;;;;;4.57;3.58;;;;;;;8.84;100.00;101076.09;10577525;28;20104;-77
2024/03/24 00:10:57;;;;;;;5.47;3.70;;;;;;;8.70;100.00;101064.28;10572532;28;20051;-76
2024/03/24 00:16:21;;;;;;;4.00;3.63;;;;;;;8.59;100.00;101065.75;10556346;28;20052;-77
2024/03/24 00:21:43;;;;;;;4.15;3.75;;;;;;;8.58;100.00;101058.69;10561193;28;20476;-77
2024/03/24 00:27:06;;;;;;;4.20;3.75;;;;;;;8.61;100.00;101062.28;10562278;28;20039;-77
2024/03/24 00:32:30;;;;;;;4.28;3.85;;;;;;;8.59;100.00;101057.84;10559977;28;20051;-77
2024/03/24 00:37:52;;;;;;;4.90;3.70;;;;;;;8.48;100.00;101057.53;10561813;28;20043;-76
2024/03/24 00:43:15;;;;;;;5.90;4.20;;;;;;;8.42;100.00;101054.72;10559246;28;20043;-76
2024/03/24 00:48:39;;;;;;;3.88;3.58;;;;;;;8.40;100.00;101059.94;10557446;28;20092;-76
2024/03/24 00:54:01;;;;;;;3.70;3.33;;;;;;;8.69;100.00;101057.25;10555958;28;20130;-77
2024/03/24 00:59:24;;;;;;;5.57;3.83;;;;;;;8.57;100.00;101049.91;10574976;28;20488;-77
2024/03/24 01:04:48;;;;;;;4.70;3.60;;;;;;;8.64;100.00;101043.06;10560430;28;20124;-76
2024/03/24 01:10:10;;;;;;;4.80;3.25;;;;;;;8.78;100.00;101046.97;10560712;28;20111;-77
2024/03/24 01:15:33;;;;;;;4.95;3.60;;;;;;;8.58;100.00;101043.81;10560075;28;20047;-76
2024/03/24 01:20:57;;;;;;;4.40;3.45;;;;;;;8.42;100.00;101036.31;10558249;28;20058;-77
2024/03/24 01:26:20;;;;;;;4.80;3.42;;;;;;;8.31;100.00;101022.88;10557045;28;20052;-77
2024/03/24 01:31:42;;;;;;;4.38;3.50;;;;;;;8.21;100.00;101031.28;10551080;28;20096;-77
2024/03/24 01:37:07;;;;;;;4.07;3.50;;;;;;;8.21;100.00;101035.66;10572154;28;20055;-77
2024/03/24 01:42:29;;;;;;;4.32;3.10;;;;;;;8.26;100.00;101032.34;10552403;28;20063;-77
2024/03/24 01:47:52;;;;;;;3.90;3.50;;;;;;;8.25;100.00;101032.28;10559523;28;20187;-78
2024/03/24 01:53:16;;;;;;;4.32;3.33;;;;;;;8.26;100.00;101027.06;10558934;28;20063;-78
2024/03/24 01:58:39;;;;;;;6.30;4.40;;;;;;;8.27;100.00;101030.59;10558564;28;20097;-77
2024/03/24 02:04:07;;;;;;;7.13;6.53;;;;;;;8.30;100.00;101034.22;10558033;28;20039;-77
2024/03/24 02:09:31;;;;;;;3.97;3.53;;;;;;;8.29;100.00;101035.03;10557579;28;20044;-77
2024/03/24 02:14:54;;;;;;;4.40;3.50;;;;;;;8.24;100.00;101041.91;10558961;28;20060;-77
2024/03/24 02:20:16;;;;;;;4.10;3.60;;;;;;;8.45;100.00;101044.31;10558338;28;20048;-77
2024/03/24 02:25:40;;;;;;;4.40;3.50;;;;;;;8.70;100.00;101051.13;10569907;28;20044;-77
2024/03/24 02:31:03;;;;;;;4.30;3.20;;;;;;;9.00;100.00;101049.31;10557512;28;20051;-78
2024/03/24 02:36:25;;;;;;;6.03;3.45;;;;;;;9.03;100.00;101048.53;10543961;28;20096;-78
2024/03/24 02:41:49;;;;;;;5.68;3.30;;;;;;;9.09;100.00;101048.69;10557744;28;20046;-77
2024/03/24 02:47:11;;;;;;;3.13;2.83;;;;;;;9.05;100.00;101053.00;10564053;28;20055;-77
2024/03/24 02:52:34;;;;;;;5.15;2.92;;;;;;;8.90;100.00;101041.16;10561043;28;20044;-77
2024/03/24 02:57:58;;;;;;;14.27;8.95;;;;;;;8.92;100.00;101050.00;10565860;28;20055;-77
2024/03/24 03:03:21;;;;;;;8.00;7.20;;;;;;;8.78;100.00;101052.25;10592433;27;20044;-77
2024/03/24 03:08:43;;;;;;;7.95;5.30;;;;;;;8.49;100.00;101047.91;10564428;28;20466;-77
2024/03/24 03:14:07;;;;;;;7.30;5.00;;;;;;;8.55;100.00;101055.97;10560062;28;20055;-77
2024/03/24 03:19:30;;;;;;;4.57;3.97;;;;;;;8.42;100.00;101053.84;10564325;28;20069;-77
2024/03/24 03:24:52;;;;;;;4.75;3.70;;;;;;;8.33;100.00;101065.88;10563113;28;20395;-77
2024/03/24 03:30:16;;;;;;;3.45;3.00;;;;;;;8.48;100.00;101054.91;10562861;28;20135;-77
2024/03/24 03:35:39;;;;;;;5.18;3.70;;;;;;;8.43;100.00;101051.25;10576736;28;20044;-77
2024/03/24 03:41:05;;;;;;;5.18;3.05;;;;;;;8.34;100.00;101062.38;10568864;28;20054;-77
2024/03/24 03:46:29;;;;;;;4.88;3.63;;;;;;;8.51;100.00;101064.63;10560027;28;20043;-77
2024/03/24 03:51:56;;;;;;;6.72;3.70;;;;;;;8.42;100.00;101064.34;10576522;28;20047;-77
2024/03/24 03:57:18;;;;;;;17.98;11.25;;;;;;;8.38;100.00;101076.53;10576609;28;20051;-76
2024/03/24 04:02:44;;;;;;;23.00;20.75;;;;;;;8.34;100.00;101070.28;10562580;28;20035;-77
2024/03/24 04:08:08;;;;;;;11.18;10.07;;;;;;;8.22;100.00;101075.16;10562216;28;20391;-77
2024/03/24 04:13:31;;;;;;;10.80;9.70;;;;;;;8.17;100.00;101081.13;10575971;28;20079;-77
2024/03/24 04:18:55;;;;;;;5.80;4.95;;;;;;;8.50;100.00;101091.78;10548182;28;20070;-77
2024/03/24 04:24:18;;;;;;;5.45;4.63;;;;;;;8.64;100.00;101086.06;10559872;28;20542;-77
2024/03/24 04:29:40;;;;;;;5.20;3.15;;;;;;;8.89;100.00;101086.75;10574734;28;20560;-78
2024/03/24 04:35:04;;;;;;;3.85;3.42;;;;;;;9.28;100.00;101085.19;10561302;28;20051;-76
2024/03/24 04:40:27;;;;;;;3.95;2.72;;;;;;;10.74;100.00;101078.03;10561089;28;20522;-78
2024/03/24 04:45:49;;;;;;;3.33;2.47;;;;;;;12.33;100.00;101064.88;10575104;28;20138;-77
2024/03/24 04:51:14;;;;;;;4.72;2.75;;;;;;;13.51;100.00;101054.69;10561529;28;20044;-78
2024/03/24 04:56:37;;;;;;;3.90;2.35;;;;;;;14.36;100.00;101046.41;10560927;28;20036;-76
2024/03/24 05:02:00;;;;;;;3.20;2.38;;;;;;;15.51;98.09;101053.78;10559592;28;20050;-77
2024/03/24 05:07:27;;;;;;;3.70;2.83;;;;;;;17.06;83.70;101053.38;10537924;28;20308;-76
2024/03/24 05:12:49;;;;;;;3.33;3.03;;;;;;;18.43;69.11;101060.19;10565206;28;20683;-77
2024/03/24 05:18:12;;;;;;;4.28;2.00;;;;;;;19.39;61.04;101070.47;10557501;28;20369;-77
2024/03/24 05:23:36;;;;;;;2.50;1.67;;;;;;;19.63;57.75;101075.44;10557260;28;20104;-77
2024/03/24 05:29:01;;;;;;;2.58;1.67;;;;;;;20.16;54.40;101076.31;10543663;28;20048;-77
2024/03/24 05:34:25;;;;;;;2.00;1.80;;;;;;;21.11;51.15;101083.31;10551226;28;20093;-77
2024/03/24 05:39:50;;;;;;;2.60;1.52;;;;;;;20.55;52.29;101097.03;10587545;27;20491;-77
2024/03/24 05:45:15;;;;;;;2.63;1.98;;;;;;;18.56;66.23;101105.50;10571461;28;20078;-77
2024/03/24 05:50:37;;;;;;;2.53;1.90;;;;;;;16.70;90.21;101108.66;10555243;28;20039;-77
2024/03/24 05:56:02;;;;;;;3.47;2.45;;;;;;;16.72;91.90;101120.22;10572796;28;20109;-77
2024/03/24 06:01:25;;;;;;;4.28;2.30;;;;;;;16.54;93.15;101122.03;10584551;28;20131;-76
2024/03/24 06:06:47;;;;;;;3.45;2.00;;;;;;;17.28;86.34;101121.72;10559348;28;20035;-77
2024/03/24 06:12:12;;;;;;;3.50;2.22;;;;;;;18.33;70.61;101126.22;10544705;28;20055;-77
2024/03/24 06:17:34;;;;;;;6.93;2.45;;;;;;;17.94;81.76;101127.47;10555106;28;20044;-77
2024/03/24 06:22:57;;;;;;;3.95;2.10;;;;;;;20.89;54.89;101133.91;10580255;28;20079;-78
2024/03/24 06:28:21;;;;;;;4.30;3.35;;;;;;;23.19;47.66;101139.72;10564681;28;20051;-77
2024/03/24 06:33:44;;;;;;;3.42;2.70;;;;;;;25.71;40.92;101131.69;10579752;28;20043;-78
2024/03/24 06:39:07;;;;;;;4.35;2.00;;;;;;;25.41;38.19;101131.06;10580010;28;20051;-78
2024/03/24 06:44:37;;;;;;;4.53;2.97;;;;;;;26.90;36.79;101134.66;10580521;28;20036;-79
2024/03/24 06:49:59;;;;;;;1.65;1.50;;;;;;;29.21;32.49;101136.47;10564872;28;20116;-77
2024/03/24 06:55:22;;;;;;;3.03;2.72;;;;;;;30.19;30.46;101142.63;10552944;28;20457;-77
2024/03/24 07:00:52;;;;;;;4.03;1.80;;;;;;;30.87;29.29;101144.75;10572591;28;20047;-77
2024/03/24 07:06:14;;;;;;;3.25;1.70;;;;;;;30.57;28.37;101152.13;10564078;28;20449;-77
2024/03/24 07:11:37;;;;;;;1.60;1.50;;;;;;;28.01;31.10;101153.72;10577245;28;20055;-77
2024/03/24 07:17:01;;;;;;;2.35;1.88;;;;;;;27.64;31.02;101147.38;10578513;28;20051;-77
2024/03/24 07:22:24;;;;;;;3.85;2.50;;;;;;;27.69;31.00;101149.88;10569881;28;20035;-77
2024/03/24 07:27:46;;;;;;;4.35;2.75;;;;;;;30.76;27.85;101141.81;10562256;28;20117;-77
2024/03/24 07:33:11;;;;;;;11.27;8.18;;;;;;;32.03;25.64;101143.53;10562308;28;20559;-78
2024/03/24 07:38:33;;;;;;;5.57;3.63;;;;;;;32.21;25.90;101155.13;10554648;28;20588;-77
2024/03/24 07:43:56;;;;;;;2.70;2.47;;;;;;;33.57;24.38;101149.91;10570103;28;20467;-78
2024/03/24 07:49:20;;;;;;;2.67;2.47;;;;;;;32.09;24.94;101149.56;10583607;27;20047;-77
2024/03/24 07:54:43;;;;;;;4.35;2.63;;;;;;;30.36;27.28;101137.03;10540713;28;20705;-78
2024/03/24 08:00:07;;;;;;;2.90;2.20;;;;;;;32.25;24.96;101144.81;10542961;28;20055;-77
2024/03/24 08:05:36;;;;;;;1.63;1.30;;;;;;;30.84;26.74;101157.72;10568985;28;20081;-77
2024/03/24 08:10:58;;;;;;;13.85;8.45;;;;;;;27.95;29.57;101162.16;10573518;28;20881;-78
2024/03/24 08:16:21;;;;;;;183.05;93.88;;;;;;;30.59;26.87;101158.31;10574374;27;20059;-77
2024/03/24 08:21:45;;;;;;;10.57;7.50;;;;;;;28.32;29.07;101163.91;10571520;28;20067;-80
2024/03/24 08:27:10;;;;;;;6.03;4.40;;;;;;;25.72;32.49;101156.91;10573176;28;20496;-77
2024/03/24 08:32:33;;;;;;;1.95;1.70;;;;;;;28.87;28.58;101164.66;10571972;28;20044;-78
2024/03/24 08:37:57;;;;;;;2.35;1.85;;;;;;;33.76;23.28;101157.66;10560955;28;20048;-78
2024/03/24 08:43:19;;;;;;;2.13;1.77;;;;;;;33.84;23.41;101154.34;10561541;28;20071;-77
2024/03/24 08:48:42;;;;;;;6.10;2.75;;;;;;;34.55;23.14;101159.78;10561378;28;20554;-77
2024/03/24 08:54:06;;;;;;;5.13;2.88;;;;;;;35.80;21.49;101152.44;10575069;28;20051;-80
2024/03/24 08:59:29;;;;;;;3.40;2.05;;;;;;;35.26;21.44;101141.34;10551677;28;20043;-81
2024/03/24 09:04:53;;;;;;;11.65;8.27;;;;;;;32.17;23.98;101123.47;10571698;28;20130;-80
2024/03/24 09:10:18;;;;;;;15.23;13.63;;;;;;;33.11;22.98;101125.00;10561277;28;20048;-80
2024/03/24 09:15:41;;;;;;;6.18;3.03;;;;;;;32.84;22.70;101092.31;10572536;28;20080;-80
2024/03/24 09:21:05;;;;;;;3.63;2.50;;;;;;;32.57;22.54;101104.31;10587368;27;20054;-79
2024/03/24 09:26:29;;;;;;;6.97;4.45;;;;;;;32.18;22.96;101099.78;10540982;28;20109;-79
2024/03/24 09:31:52;;;;;;;1.95;1.35;;;;;;;31.62;22.90;101093.56;10557648;28;20145;-80
2024/03/24 09:37:14;;;;;;;7.32;3.88;;;;;;;31.50;23.01;101094.34;10574406;28;20078;-78
2024/03/24 09:42:38;;;;;;;3.58;2.70;;;;;;;32.91;22.28;101090.00;10559250;28;20051;-78
2024/03/24 09:48:03;;;;;;;4.45;3.17;;;;;;;33.16;21.95;101097.28;10532216;28;20060;-79
2024/03/24 09:53:26;;;;;;;2.35;1.80;;;;;;;33.10;21.54;101087.66;10558159;28;20777;-79
2024/03/24 09:58:51;;;;;;;9.25;5.07;;;;;;;33.15;21.63;101082.72;10588228;28;20048;-79
2024/03/24 10:04:15;;;;;;;2.35;2.10;;;;;;;31.98;22.66;101073.78;10545569;28;20503;-79
2024/03/24 10:09:37;;;;;;;2.55;1.70;;;;;;;31.44;23.12;101062.00;10587660;28;20047;-79
2024/03/24 10:15:16;;;;;;;2.05;1.75;;;;;;;31.71;23.73;101073.81;10557760;28;20889;-79
2024/03/24 10:20:39;;;;;;;1.70;1.40;;;;;;;31.55;23.79;101073.06;10586639;28;20055;-79
2024/03/24 10:26:02;;;;;;;2.65;1.45;;;;;;;31.31;23.72;101066.50;10573076;28;20055;-79
2024/03/24 10:31:26;;;;;;;1.88;1.30;;;;;;;30.67;24.21;101067.88;10556106;28;20052;-79
2024/03/24 10:36:49;;;;;;;3.90;1.17;;;;;;;29.69;25.48;101064.78;10558742;28;20105;-79
2024/03/24 10:42:13;;;;;;;2.65;2.35;;;;;;;29.63;25.62;101073.28;10559489;28;20134;-79
2024/03/24 10:47:38;;;;;;;4.85;3.80;;;;;;;30.23;25.47;101063.34;10559649;28;20071;-79
2024/03/24 10:53:04;;;;;;;3.08;1.77;;;;;;;29.41;25.97;101064.63;10587354;28;20066;-79
2024/03/24 10:58:27;;;;;;;1.98;1.77;;;;;;;28.12;27.20;101076.16;10545203;28;20046;-79
2024/03/24 11:03:54;;;;;;;2.65;1.30;;;;;;;28.05;28.12;101079.28;10564901;28;20048;-79
2024/03/24 11:09:17;;;;;;;1.52;1.30;;;;;;;27.71;28.47;101067.44;10579026;28;20505;-79
2024/03/24 11:14:39;;;;;;;2.35;1.40;;;;;;;27.54;29.81;101080.09;10552265;28;20044;-78
2024/03/24 11:20:06;;;;;;;5.72;4.40;;;;;;;25.92;31.64;101064.97;10566136;28;20320;-78
2024/03/24 11:25:36;;;;;;;3.08;1.23;;;;;;;24.37;34.74;101070.22;10565578;28;20423;-78
2024/03/24 11:30:58;;;;;;;1.42;1.33;;;;;;;23.87;35.88;101067.47;10563552;28;20522;-79
2024/03/24 11:36:26;;;;;;;3.08;1.98;;;;;;;23.82;36.40;101064.94;10579654;28;20051;-79
2024/03/24 11:42:05;;;;;;;2.60;1.80;;;;;;;24.08;36.25;101057.75;10565185;28;20093;-79
2024/03/24 11:47:30;;;;;;;1.40;1.20;;;;;;;23.87;36.99;101056.69;10579424;28;20050;-79
2024/03/24 11:52:54;;;;;;;3.80;1.20;;;;;;;24.85;35.10;101064.81;10593013;27;20142;-79
2024/03/24 11:58:18;;;;;;;3.15;1.50;;;;;;;24.62;34.85;101055.75;10579649;28;20501;-79
2024/03/24 12:03:40;;;;;;;8.63;2.42;;;;;;;24.25;36.29;101051.78;10564482;28;20060;-78
2024/03/24 12:09:05;;;;;;;1.85;1.67;;;;;;;23.97;36.76;101041.94;10576565;28;20060;-79
2024/03/24 12:14:28;;;;;;;2.78;1.70;;;;;;;23.11;38.46;101025.94;10549923;28;20048;-79
2024/03/24 12:19:50;;;;;;;17.65;12.57;;;;;;;22.49;40.05;101016.16;10577070;28;20073;-79
2024/03/24 12:25:16;;;;;;;4.22;2.05;;;;;;;22.11;39.00;100998.44;10550401;28;20104;-78
2024/03/24 12:30:39;;;;;;;2.15;1.20;;;;;;;21.92;37.03;100999.84;10576990;28;20044;-79
2024/03/24 12:36:02;;;;;;;2.15;1.48;;;;;;;21.71;36.07;101003.97;10575684;28;20112;-78
2024/03/24 12:41:26;;;;;;;1.50;1.40;;;;;;;21.67;34.57;100986.16;10562743;28;20039;-79
2024/03/24 12:46:48;;;;;;;1.45;1.23;;;;;;;21.33;33.76;100996.00;10577068;28;20103;-79
2024/03/24 12:52:11;;;;;;;1.38;1.25;;;;;;;21.50;32.98;100987.50;10563139;28;20067;-79
2024/03/24 12:57:35;;;;;;;3.03;1.20;;;;;;;21.48;33.16;100975.00;10575327;28;20047;-78
2024/03/24 13:03:02;;;;;;;8.82;6.30;;;;;;;21.55;34.34;100964.97;10541230;28;20668;-78
2024/03/24 13:08:27;;;;;;;4.72;2.15;;;;;;;21.55;34.38;100951.53;10571237;28;20494;-82
2024/03/24 13:13:51;;;;;;;6.00;2.83;;;;;;;21.48;34.94;100948.13;10556448;28;20083;-79
2024/03/24 13:19:18;;;;;;;3.60;2.50;;;;;;;21.52;35.50;100934.63;10553337;28;20059;-78
2024/03/24 13:24:47;;;;;;;1.60;1.43;;;;;;;21.39;35.17;100936.75;10559923;28;20043;-79
2024/03/24 13:30:12;;;;;;;1.83;1.52;;;;;;;21.18;35.10;100929.25;10562151;27;20063;-78
2024/03/24 13:35:35;;;;;;;3.30;2.45;;;;;;;21.11;34.77;100916.88;10553926;28;20052;-81
2024/03/24 13:41:14;;;;;;;1.85;1.02;;;;;;;21.00;35.09;100914.47;10580729;27;20046;-82
2024/03/24 13:46:51;;;;;;;1.65;1.10;;;;;;;20.88;33.47;100920.09;10566936;28;20047;-80
2024/03/24 13:52:15;;;;;;;1.67;1.58;;;;;;;20.38;34.40;100919.47;10568145;28;20059;-79
2024/03/24 13:57:38;;;;;;;2.75;1.20;;;;;;;20.31;34.89;100931.22;10570734;28;20063;-78
2024/03/24 14:03:02;;;;;;;1.85;1.30;;;;;;;20.35;36.04;100924.91;10555348;28;20074;-79
2024/03/24 14:08:25;;;;;;;4.78;2.97;;;;;;;20.46;35.67;100914.84;10568407;28;20040;-82
2024/03/24 14:14:08;;;;;;;4.35;3.00;;;;;;;20.65;35.51;100926.03;10567690;28;20062;-79
2024/03/24 14:19:41;;;;;;;3.45;2.33;;;;;;;20.54;35.55;100922.72;10537628;28;20042;-84
2024/03/24 14:25:11;;;;;;;5.28;1.80;;;;;;;20.61;35.19;100916.28;10558740;28;20472;-82
2024/03/24 14:30:34;;;;;;;2.22;1.40;;;;;;;20.77;35.56;100916.78;10547087;28;20048;-80
2024/03/24 14:36:08;;;;;;;2.40;2.05;;;;;;;20.33;35.84;100916.03;10562146;28;20519;-85
2024/03/24 14:41:40;;;;;;;5.90;2.92;;;;;;;20.20;38.59;100918.06;10575944;28;20069;-81
2024/03/24 14:47:17;;;;;;;4.80;3.75;;;;;;;20.19;40.90;100905.56;10574012;28;20067;-83
2024/03/24 14:52:41;;;;;;;3.95;1.92;;;;;;;20.12;41.15;100905.72;10580389;28;20447;-81
2024/03/24 14:58:04;;;;;;;2.53;1.60;;;;;;;20.00;41.73;100896.16;10571511;28;20526;-80
2024/03/24 15:03:27;;;;;;;2.67;1.55;;;;;;;19.84;42.17;100903.63;10551458;27;20040;-82
2024/03/24 15:08:51;;;;;;;2.30;2.00;;;;;;;19.56;43.76;100899.69;10560440;28;20104;-81
2024/03/24 15:14:14;;;;;;;2.38;1.70;;;;;;;19.43;44.59;100895.44;10559106;28;20051;-79
2024/03/24 15:19:36;;;;;;;3.83;2.40;;;;;;;19.33;45.45;100899.22;10552140;28;20051;-77
2024/03/24 15:25:10;;;;;;;7.35;1.70;;;;;;;19.34;46.05;100907.22;10561069;28;20080;-78
2024/03/24 15:30:44;;;;;;;4.55;2.35;;;;;;;19.04;48.22;100900.59;10565842;28;20036;-78
2024/03/24 15:36:08;;;;;;;5.18;2.00;;;;;;;18.74;51.45;100900.22;10557220;28;20067;-80
2024/03/24 15:41:32;;;;;;;4.32;2.15;;;;;;;18.39;55.60;100893.56;10556467;28;20058;-78
2024/03/24 15:46:55;;;;;;;3.65;2.15;;;;;;;18.14;59.31;100897.50;10558746;28;20051;-77
2024/03/24 15:52:18;;;;;;;3.78;1.95;;;;;;;17.90;63.19;100896.03;10562457;28;20084;-79
2024/03/24 15:57:53;;;;;;;4.25;2.20;;;;;;;17.51;70.36;100903.56;10562216;28;20044;-79
2024/03/24 16:03:15;;;;;;;5.07;2.40;;;;;;;17.31;75.91;100905.53;10559271;28;20055;-81
2024/03/24 16:08:38;;;;;;;5.65;2.28;;;;;;;17.10;82.26;100906.63;10550717;28;20304;-79
2024/03/24 16:14:07;;;;;;;4.57;2.38;;;;;;;17.02;86.39;100916.47;10551038;28;20044;-78
2024/03/24 16:19:30;;;;;;;6.95;2.72;;;;;;;16.93;87.15;100916.56;10554716;28;20051;-77
2024/03/24 16:24:54;;;;;;;4.47;2.42;;;;;;;16.68;91.47;100922.94;10560314;28;20139;-78
2024/03/24 16:30:18;;;;;;;4.68;2.70;;;;;;;16.43;95.73;100919.53;10588049;27;20043;-78
2024/03/24 16:35:40;;;;;;;4.50;2.53;;;;;;;16.44;95.97;100917.75;10547233;28;20051;-79
2024/03/24 16:41:03;;;;;;;4.13;2.70;;;;;;;16.36;97.92;100909.78;10560478;28;20445;-77
2024/03/24 16:46:27;;;;;;;4.97;2.80;;;;;;;16.25;98.94;100908.97;10574840;28;20500;-78
2024/03/24 16:51:49;;;;;;;7.20;3.10;;;;;;;16.31;98.29;100919.59;10566237;28;20042;-79
2024/03/24 16:57:12;;;;;;;6.13;2.97;;;;;;;16.27;98.17;100915.19;10574139;28;20054;-78
2024/03/24 17:02:36;;;;;;;6.13;2.83;;;;;;;16.09;99.12;100920.56;10558533;28;20043;-78
2024/03/24 17:07:58;;;;;;;3.88;2.67;;;;;;;15.84;100.00;100925.13;10587598;27;20051;-78
2024/03/24 17:13:21;;;;;;;4.45;2.58;;;;;;;15.70;100.00;100933.13;10559739;28;20062;-79
2024/03/24 17:18:45;;;;;;;6.07;3.17;;;;;;;15.35;100.00;100930.53;10544883;28;20048;-77
2024/03/24 17:24:08;;;;;;;5.57;3.05;;;;;;;15.16;100.00;100924.31;10557043;28;20047;-78
2024/03/24 17:29:32;;;;;;;3.85;3.00;;;;;;;15.10;100.00;100920.78;10543699;28;20035;-79
2024/03/24 17:34:56;;;;;;;4.75;2.92;;;;;;;15.01;100.00;100921.69;10555157;28;20136;-83
2024/03/24 17:40:20;;;;;;;5.80;3.08;;;;;;;15.06;100.00;100927.88;10551365;28;20432;-80
2024/03/24 17:45:43;;;;;;;6.22;3.42;;;;;;;14.98;100.00;100931.41;10561377;28;20044;-81
2024/03/24 17:51:08;;;;;;;4.03;3.28;;;;;;;14.99;100.00;100931.44;10568683;28;20044;-79
2024/03/24 17:56:30;;;;;;;5.55;3.35;;;;;;;14.89;100.00;100929.66;10546289;28;20047;-78
2024/03/24 18:01:52;;;;;;;6.38;4.82;;;;;;;14.93;100.00;100938.50;10563586;28;20059;-79
2024/03/24 18:12:57;;;;;;;18.88;14.40;;;;;;;14.26;100.00;100933.91;10566570;28;20047;-78
2024/03/24 18:18:20;;;;;;;7.40;4.95;;;;;;;14.08;100.00;100933.84;10568971;27;20557;-80
2024/03/24 18:23:44;;;;;;;6.70;4.30;;;;;;;14.11;100.00;100933.00;10576183;28;20047;-79
2024/03/24 18:29:06;;;;;;;6.57;3.50;;;;;;;14.03;100.00;100932.06;10565221;28;20047;-79
2024/03/24 18:34:29;;;;;;;6.25;5.30;;;;;;;13.90;100.00;100936.44;10574870;28;20040;-78
2024/03/24 18:39:53;;;;;;;10.63;8.40;;;;;;;13.82;100.00;100944.34;10550960;28;20040;-79
2024/03/24 18:45:16;;;;;;;8.93;7.55;;;;;;;13.68;100.00;100927.47;10576295;28;20058;-78
2024/03/24 18:50:40;;;;;;;8.98;6.00;;;;;;;13.61;100.00;100932.72;10576261;28;20043;-82
2024/03/24 18:56:04;;;;;;;4.18;3.35;;;;;;;13.55;100.00;100915.91;10567334;28;20050;-80
2024/03/24 19:01:28;;;;;;;4.57;3.75;;;;;;;13.53;100.00;100920.31;10566795;28;20102;-79
2024/03/24 19:06:50;;;;;;;4.13;3.72;;;;;;;13.53;100.00;100915.00;10564260;28;20471;-79
2024/03/24 19:12:14;;;;;;;11.38;8.00;;;;;;;13.46;100.00;100920.25;10576290;28;20100;-78
2024/03/24 19:17:37;;;;;;;18.33;15.00;;;;;;;13.37;100.00;100913.16;10573426;28;20434;-79
2024/03/24 19:23:00;;;;;;;6.88;4.68;;;;;;;13.07;100.00;100924.38;10560117;27;20075;-79
2024/03/24 19:28:24;;;;;;;6.03;4.90;;;;;;;12.94;100.00;100917.19;10552216;28;20047;-80
2024/03/24 19:33:49;;;;;;;7.25;5.25;;;;;;;12.94;100.00;100918.94;10559468;28;20499;-81
2024/03/24 19:39:11;;;;;;;5.75;4.25;;;;;;;13.03;100.00;100916.38;10545809;27;20058;-82
2024/03/24 19:44:35;;;;;;;4.97;3.50;;;;;;;13.06;100.00;100911.97;10554131;28;20051;-80
2024/03/24 19:49:58;;;;;;;4.60;3.63;;;;;;;13.05;100.00;100910.22;10569989;28;20051;-80
2024/03/24 19:55:21;;;;;;;6.88;4.00;;;;;;;13.13;100.00;100905.88;10561757;28;20048;-78
2024/03/24 20:00:45;;;;;;;9.95;6.85;;;;;;;13.11;100.00;100909.38;10540820;28;20059;-80
2024/03/24 20:06:07;;;;;;;7.45;5.07;;;;;;;12.92;100.00;100896.88;10574986;28;20090;-82
2024/03/24 20:11:31;;;;;;;7.25;4.45;;;;;;;12.65;100.00;100885.16;10560643;28;20043;-80
2024/03/24 20:16:55;;;;;;;5.60;3.03;;;;;;;12.50;100.00;100885.00;10591055;27;20040;-80
2024/03/24 20:22:18;;;;;;;3.80;2.85;;;;;;;12.54;100.00;100877.97;10580447;27;20058;-81
2024/03/24 20:27:42;;;;;;;5.57;3.17;;;;;;;12.65;100.00;100865.75;10575436;28;20082;-80
2024/03/24 20:33:07;;;;;;;3.30;2.97;;;;;;;12.59;100.00;100850.69;10558109;28;20051;-80
2024/03/24 20:38:29;;;;;;;6.43;2.67;;;;;;;12.64;100.00;100848.97;10534083;28;20086;-81
2024/03/24 20:43:51;;;;;;;8.93;2.78;;;;;;;12.76;100.00;100845.50;10554134;28;20521;-80
2024/03/24 20:49:16;;;;;;;4.30;2.80;;;;;;;12.91;100.00;100837.69;10573814;28;20044;-79
2024/03/24 20:54:39;;;;;;;4.55;2.95;;;;;;;13.18;100.00;100826.41;10568653;28;20046;-80
2024/03/24 21:00:05;;;;;;;5.22;2.90;;;;;;;13.36;100.00;100821.22;10589865;27;20040;-80
2024/03/24 21:05:29;;;;;;;4.78;2.65;;;;;;;13.46;100.00;100824.78;10553803;28;20083;-80
2024/03/24 21:10:52;;;;;;;5.50;2.80;;;;;;;13.62;100.00;100825.75;10560924;28;20452;-79
2024/03/24 21:16:14;;;;;;;2.88;2.58;;;;;;;13.50;100.00;100823.94;10560753;28;20047;-80
2024/03/24 21:21:39;;;;;;;4.65;2.90;;;;;;;13.50;100.00;100810.69;10555838;28;20047;-80
2024/03/24 21:27:01;;;;;;;5.50;3.22;;;;;;;13.66;100.00;100803.66;10575362;28;20071;-80
2024/03/24 21:32:24;;;;;;;6.03;3.22;;;;;;;13.79;100.00;100819.63;10559946;28;20373;-81
2024/03/24 21:43:27;;;;;;;5.00;3.33;;;;;;;13.68;100.00;100817.81;10574112;28;20071;-80
2024/03/24 21:48:50;;;;;;;5.53;3.20;;;;;;;13.55;100.00;100822.19;10574052;28;20510;-80
2024/03/24 21:54:14;;;;;;;4.68;3.55;;;;;;;13.49;100.00;100817.75;10558418;28;20031;-81
2024/03/24 21:59:36;;;;;;;8.98;3.78;;;;;;;13.63;100.00;100814.25;10570483;28;20036;-80
2024/03/24 22:04:59;;;;;;;5.95;3.90;;;;;;;13.85;100.00;100801.06;10573158;28;20118;-80
2024/03/24 22:10:23;;;;;;;8.07;3.88;;;;;;;13.98;100.00;100794.00;10562348;28;20067;-80
2024/03/24 22:15:46;;;;;;;7.03;4.38;;;;;;;13.93;100.00;100778.09;10559977;28;20044;-79
2024/03/24 22:21:08;;;;;;;6.57;3.63;;;;;;;13.77;100.00;100778.06;10572566;28;20124;-81
2024/03/24 22:26:32;;;;;;;8.57;4.20;;;;;;;13.75;100.00;100782.47;10559430;28;20092;-80
2024/03/24 22:31:55;;;;;;;6.38;4.30;;;;;;;13.70;100.00;100789.53;10571947;28;20469;-80
2024/03/24 22:37:17;;;;;;;8.10;3.88;;;;;;;13.65;100.00;100784.22;10572984;28;20120;-81
2024/03/24 22:42:41;;;;;;;5.88;4.10;;;;;;;13.73;100.00;100792.19;10573653;28;20131;-80
2024/03/24 22:48:04;;;;;;;5.90;4.47;;;;;;;13.87;100.00;100790.44;10559014;28;20075;-80
2024/03/24 22:53:27;;;;;;;8.10;3.97;;;;;;;13.94;100.00;100786.94;10556791;28;20483;-80
2024/03/24 22:58:51;;;;;;;10.32;4.40;;;;;;;13.96;100.00;100777.22;10557106;28;20035;-80
2024/03/24 23:04:14;;;;;;;9.13;5.30;;;;;;;14.02;100.00;100776.34;10551775;28;20550;-80
2024/03/24 23:09:36;;;;;;;6.95;4.90;;;;;;;14.08;100.00;100779.00;10565135;28;20043;-80
2024/03/24 23:15:01;;;;;;;6.78;4.72;;;;;;;14.16;100.00;100785.22;10579701;28;20124;-81
2024/03/24 23:20:23;;;;;;;9.73;4.10;;;;;;;14.09;100.00;100776.34;10564259;28;20070;-80
2024/03/24 23:25:45;;;;;;;10.68;4.60;;;;;;;13.92;100.00;100778.97;10579524;28;20044;-81
2024/03/24 23:31:09;;;;;;;8.88;4.72;;;;;;;13.98;100.00;100775.44;10563787;28;20048;-81
2024/03/24 23:36:32;;;;;;;9.30;4.50;;;;;;;13.96;100.00;100778.09;10579443;28;20555;-80
2024/03/24 23:41:54;;;;;;;13.63;5.18;;;;;;;13.93;100.00;100782.50;10578767;28;20051;-81
2024/03/24 23:47:19;;;;;;;11.00;5.70;;;;;;;14.00;100.00;100789.59;10564632;28;20052;-80
2024/03/24 23:52:41;;;;;;;10.35;4.80;;;;;;;13.83;100.00;100772.78;10563754;28;20050;-81
2024/03/24 23:58:05;;;;;;;11.18;5.00;;;;;;;13.77;100.00;100781.59;10563189;28;20093;-80
